Time;durP1;ratioP1;P1;durP2;ratioP2;P2;SDS_P1;SDS_P2;PMS_P1;PMS_P2;Temp;Humidity;BMP_temperature;BMP_pressure;BME280_temperature;BME280_humidity;BME280_pressure;Samples;Min_cycle;Max_cycle;Signal;HPM_P1;HPM_P2
2022/04/12 00:01:14;;;;;;;0.47;0.47;;;3.20;99.90;;;;;;5054335;28;20976;-71
2022/04/12 00:04:04;;;;;;;0.50;0.50;;;3.20;99.90;;;;;;5052972;28;20431;-71
2022/04/12 00:06:52;;;;;;;0.40;0.40;;;3.10;99.90;;;;;;5055390;28;20420;-73
2022/04/12 00:09:41;;;;;;;0.40;0.40;;;3.20;99.90;;;;;;5053186;28;20432;-71
2022/04/12 00:12:29;;;;;;;0.40;0.40;;;3.10;99.90;;;;;;5054000;28;20463;-71
2022/04/12 00:15:17;;;;;;;0.43;0.43;;;3.10;99.90;;;;;;5053920;28;20534;-71
2022/04/12 00:21:12;;;;;;;0.50;0.50;;;3.00;99.90;;;;;;5052107;28;20456;-71
2022/04/12 00:24:02;;;;;;;0.40;0.40;;;3.00;99.90;;;;;;5052565;28;20421;-71
2022/04/12 00:26:50;;;;;;;0.40;0.40;;;3.00;99.90;;;;;;5053125;28;20436;-71
2022/04/12 00:29:38;;;;;;;0.43;0.43;;;2.90;99.90;;;;;;5053500;28;20429;-71
2022/04/12 00:32:26;;;;;;;0.40;0.40;;;2.90;99.90;;;;;;5052033;28;20453;-71
2022/04/12 00:35:14;;;;;;;0.40;0.40;;;2.90;99.90;;;;;;5052013;28;20491;-73
2022/04/12 00:38:13;;;;;;;0.40;0.40;;;2.80;99.90;;;;;;5053791;28;20952;-73
2022/04/12 00:41:01;;;;;;;0.40;0.40;;;2.80;99.90;;;;;;5052697;28;20455;-72
2022/04/12 00:43:50;;;;;;;0.40;0.40;;;2.80;99.90;;;;;;5053108;28;21082;-71
2022/04/12 00:46:38;;;;;;;0.40;0.40;;;2.80;99.90;;;;;;5052242;28;20957;-73
2022/04/12 00:49:26;;;;;;;0.40;0.40;;;2.70;99.90;;;;;;5052656;28;20994;-71
2022/04/12 00:52:15;;;;;;;0.40;0.40;;;2.70;99.90;;;;;;5053957;28;20476;-71
2022/04/12 00:55:05;;;;;;;0.40;0.40;;;2.70;99.90;;;;;;5052928;28;20468;-71
2022/04/12 00:57:54;;;;;;;0.40;0.40;;;2.60;99.90;;;;;;5051845;28;20424;-73
2022/04/12 01:00:42;;;;;;;0.50;0.50;;;2.60;99.90;;;;;;5052753;28;20428;-70
2022/04/12 01:03:30;;;;;;;0.40;0.40;;;2.60;99.90;;;;;;5052084;28;20440;-71
2022/04/12 01:06:18;;;;;;;0.43;0.43;;;2.60;99.90;;;;;;5052475;28;20420;-70
2022/04/12 01:09:07;;;;;;;0.40;0.40;;;2.60;99.90;;;;;;5052518;28;20439;-71
2022/04/12 01:11:59;;;;;;;0.50;0.50;;;2.50;99.90;;;;;;5052073;28;20490;-71
2022/04/12 01:14:47;;;;;;;0.67;0.67;;;2.50;99.90;;;;;;5052950;28;21035;-71
2022/04/12 01:17:35;;;;;;;0.77;0.77;;;2.50;99.90;;;;;;5052181;28;20437;-71
2022/04/12 01:20:25;;;;;;;0.40;0.40;;;2.50;99.90;;;;;;5052277;28;21016;-71
2022/04/12 01:23:16;;;;;;;0.40;0.40;;;2.40;99.90;;;;;;5050900;28;20432;-71
2022/04/12 01:26:06;;;;;;;0.40;0.40;;;2.40;99.90;;;;;;5054116;28;20425;-73
2022/04/12 01:28:54;;;;;;;0.40;0.40;;;2.40;99.90;;;;;;5050560;28;20988;-72
2022/04/12 01:31:42;;;;;;;0.40;0.40;;;2.40;99.90;;;;;;5053468;28;20451;-72
2022/04/12 01:34:31;;;;;;;0.40;0.40;;;2.40;99.90;;;;;;5051852;28;20451;-72
2022/04/12 01:37:19;;;;;;;0.40;0.40;;;2.40;99.90;;;;;;5052889;28;20424;-70
2022/04/12 01:40:09;;;;;;;0.40;0.40;;;2.40;99.90;;;;;;5048090;28;20455;-72
2022/04/12 01:42:59;;;;;;;0.40;0.40;;;2.30;99.90;;;;;;5071774;28;20912;-70
2022/04/12 01:45:47;;;;;;;0.40;0.40;;;2.30;99.90;;;;;;5072283;28;20425;-71
2022/04/12 01:48:35;;;;;;;0.50;0.50;;;2.30;99.90;;;;;;5071977;28;20423;-71
2022/04/12 01:51:23;;;;;;;0.50;0.50;;;2.30;99.90;;;;;;5072751;28;20509;-71
2022/04/12 01:54:11;;;;;;;0.40;0.40;;;2.30;99.90;;;;;;5072325;28;20424;-71
2022/04/12 01:57:00;;;;;;;3.37;3.23;;;2.30;99.90;;;;;;5072256;28;20517;-70
2022/04/12 01:59:49;;;;;;;0.40;0.40;;;2.30;99.90;;;;;;5071982;28;20908;-71
2022/04/12 02:02:37;;;;;;;0.40;0.40;;;2.30;99.90;;;;;;5072185;28;20980;-71
2022/04/12 02:05:25;;;;;;;0.40;0.40;;;2.30;99.90;;;;;;5071178;28;20416;-71
2022/04/12 02:08:14;;;;;;;0.50;0.50;;;2.30;99.90;;;;;;5072183;28;20427;-70
2022/04/12 02:11:02;;;;;;;0.40;0.40;;;2.30;99.90;;;;;;5071379;28;20491;-70
2022/04/12 02:13:50;;;;;;;0.50;0.50;;;2.30;99.90;;;;;;5072028;28;20439;-71
2022/04/12 02:16:39;;;;;;;0.40;0.40;;;2.20;99.90;;;;;;5072552;28;20467;-71
2022/04/12 02:19:28;;;;;;;0.40;0.40;;;2.20;99.90;;;;;;5071988;28;20439;-71
2022/04/12 02:22:16;;;;;;;0.40;0.40;;;2.20;99.90;;;;;;5071260;28;20444;-71
2022/04/12 02:25:05;;;;;;;0.40;0.40;;;2.10;99.90;;;;;;5072240;28;20445;-71
2022/04/12 02:27:53;;;;;;;0.40;0.40;;;2.10;99.90;;;;;;5075204;28;20420;-71
2022/04/12 02:30:43;;;;;;;0.40;0.40;;;2.10;99.90;;;;;;5085156;28;20913;-70
2022/04/12 02:33:33;;;;;;;1.00;1.00;;;2.10;99.90;;;;;;5084446;28;20439;-70
2022/04/12 02:36:21;;;;;;;0.40;0.40;;;2.00;99.90;;;;;;5084487;28;20478;-70
2022/04/12 02:39:09;;;;;;;0.40;0.40;;;2.00;99.90;;;;;;5063871;22;20579;-63
2022/04/12 02:41:57;;;;;;;0.40;0.40;;;1.90;99.90;;;;;;5033369;28;20468;-63
2022/04/12 02:44:45;;;;;;;0.40;0.40;;;1.90;99.90;;;;;;5034389;28;20417;-63
2022/04/12 02:47:33;;;;;;;0.40;0.40;;;1.90;99.90;;;;;;5038771;28;20432;-63
2022/04/12 02:50:23;;;;;;;0.50;0.50;;;1.80;99.90;;;;;;5054708;28;20421;-64
2022/04/12 02:53:11;;;;;;;0.40;0.40;;;1.80;99.90;;;;;;5053659;28;20450;-64
2022/04/12 02:55:59;;;;;;;0.40;0.40;;;1.80;99.90;;;;;;5053010;28;20484;-64
2022/04/12 02:58:47;;;;;;;0.40;0.40;;;1.70;99.90;;;;;;5053721;28;20445;-64
2022/04/12 03:01:36;;;;;;;0.40;0.40;;;1.70;99.90;;;;;;5054118;28;20431;-64
2022/04/12 03:04:24;;;;;;;0.40;0.40;;;1.70;99.90;;;;;;5054539;28;20499;-64
2022/04/12 03:07:14;;;;;;;0.40;0.40;;;1.60;99.90;;;;;;5054028;28;20417;-64
2022/04/12 03:10:02;;;;;;;0.40;0.40;;;1.70;99.90;;;;;;5052404;28;20444;-64
2022/04/12 03:12:51;;;;;;;0.40;0.40;;;1.60;99.90;;;;;;5055646;28;20463;-64
2022/04/12 03:15:39;;;;;;;0.40;0.40;;;1.60;99.90;;;;;;5054990;28;20471;-65
2022/04/12 03:18:27;;;;;;;0.40;0.40;;;1.60;99.90;;;;;;5054517;28;20441;-64
2022/04/12 03:21:15;;;;;;;0.40;0.40;;;1.60;99.90;;;;;;5054276;28;20421;-64
2022/04/12 03:24:06;;;;;;;0.40;0.40;;;1.60;99.90;;;;;;5054190;28;20436;-63
2022/04/12 03:26:54;;;;;;;0.40;0.40;;;1.50;99.90;;;;;;5053690;28;20424;-63
2022/04/12 03:29:42;;;;;;;0.40;0.40;;;1.50;99.90;;;;;;5053328;28;20486;-65
2022/04/12 03:32:30;;;;;;;0.40;0.40;;;1.50;99.90;;;;;;5053479;28;20425;-64
2022/04/12 03:35:19;;;;;;;0.40;0.40;;;1.50;99.90;;;;;;5053628;28;20628;-65
2022/04/12 03:38:07;;;;;;;0.40;0.40;;;1.50;99.90;;;;;;5054763;28;21057;-63
2022/04/12 03:40:58;;;;;;;0.40;0.40;;;1.50;99.90;;;;;;5066001;28;20452;-65
2022/04/12 03:43:47;;;;;;;0.40;0.40;;;1.50;99.90;;;;;;5069629;28;20405;-65
2022/04/12 03:46:35;;;;;;;0.40;0.40;;;1.40;99.90;;;;;;5065260;28;20417;-66
2022/04/12 03:49:23;;;;;;;0.40;0.40;;;1.40;99.90;;;;;;5064694;28;20440;-63
2022/04/12 03:52:11;;;;;;;0.40;0.40;;;1.40;99.90;;;;;;5066326;28;20424;-65
2022/04/12 03:55:00;;;;;;;0.40;0.40;;;1.40;99.90;;;;;;5066315;28;20420;-65
2022/04/12 03:57:49;;;;;;;0.40;0.40;;;1.40;99.90;;;;;;5065667;28;20460;-64
2022/04/12 04:00:37;;;;;;;0.40;0.40;;;1.40;99.90;;;;;;5053015;28;20424;-64
2022/04/12 04:03:25;;;;;;;0.40;0.40;;;1.40;99.90;;;;;;5053922;28;20483;-64
2022/04/12 04:06:13;;;;;;;0.40;0.40;;;1.40;99.90;;;;;;5051964;28;20464;-64
2022/04/12 04:09:01;;;;;;;0.50;0.50;;;1.40;99.90;;;;;;5053051;28;20464;-64
2022/04/12 04:11:50;;;;;;;0.40;0.40;;;1.40;99.90;;;;;;5052516;28;20421;-64
2022/04/12 04:14:42;;;;;;;0.50;0.50;;;1.40;99.90;;;;;;5052940;28;20452;-64
2022/04/12 04:17:30;;;;;;;0.40;0.40;;;1.50;99.90;;;;;;5052315;28;21003;-64
2022/04/12 04:20:19;;;;;;;0.40;0.40;;;1.50;99.90;;;;;;5051851;28;20956;-65
2022/04/12 04:23:08;;;;;;;0.40;0.40;;;1.50;99.90;;;;;;5051482;28;20428;-64
2022/04/12 04:25:56;;;;;;;0.40;0.40;;;1.50;99.90;;;;;;5059210;28;20424;-64
2022/04/12 04:28:45;;;;;;;0.40;0.40;;;1.50;99.90;;;;;;5061305;28;20448;-64
2022/04/12 04:31:34;;;;;;;0.40;0.40;;;1.60;99.90;;;;;;5052217;28;20952;-65
2022/04/12 04:34:22;;;;;;;0.40;0.40;;;1.60;99.90;;;;;;5052502;28;20568;-64
2022/04/12 04:37:10;;;;;;;0.40;0.40;;;1.70;99.90;;;;;;5051061;28;21002;-64
2022/04/12 04:39:59;;;;;;;0.40;0.40;;;1.70;99.90;;;;;;5051291;28;20428;-65
2022/04/12 04:42:49;;;;;;;0.40;0.40;;;1.70;99.90;;;;;;5053486;28;21039;-65
2022/04/12 04:45:37;;;;;;;0.40;0.40;;;1.70;99.90;;;;;;5053305;28;20456;-66
2022/04/12 04:48:27;;;;;;;0.40;0.40;;;1.80;99.90;;;;;;5051756;28;20445;-64
2022/04/12 04:51:15;;;;;;;0.40;0.40;;;1.90;99.90;;;;;;5052093;28;20811;-65
2022/04/12 04:54:03;;;;;;;0.40;0.40;;;1.90;99.90;;;;;;5052878;28;20964;-65
2022/04/12 04:56:51;;;;;;;0.40;0.40;;;2.00;99.90;;;;;;5051542;28;20971;-65
2022/04/12 04:59:39;;;;;;;0.40;0.40;;;2.10;99.90;;;;;;5051891;28;20467;-65
2022/04/12 05:02:27;;;;;;;0.50;0.50;;;2.20;99.90;;;;;;5051229;28;20425;-64
2022/04/12 05:05:17;;;;;;;0.40;0.40;;;2.20;99.90;;;;;;5052156;28;20511;-63
2022/04/12 05:08:06;;;;;;;0.40;0.40;;;2.30;99.90;;;;;;5052160;28;20437;-63
2022/04/12 05:10:54;;;;;;;0.40;0.40;;;2.40;99.90;;;;;;5052734;28;20435;-63
2022/04/12 05:13:42;;;;;;;0.40;0.40;;;2.50;99.90;;;;;;5051468;28;20813;-63
2022/04/12 05:16:31;;;;;;;0.40;0.40;;;2.60;99.90;;;;;;5053025;28;20806;-63
2022/04/12 05:19:19;;;;;;;0.40;0.40;;;2.70;99.90;;;;;;5052513;28;20827;-63
2022/04/12 05:22:08;;;;;;;0.40;0.40;;;2.80;99.90;;;;;;5053189;28;20428;-64
2022/04/12 05:24:56;;;;;;;0.40;0.40;;;2.90;99.90;;;;;;5052330;28;20859;-64
2022/04/12 05:27:45;;;;;;;0.40;0.40;;;3.00;99.90;;;;;;5051608;28;20480;-64
2022/04/12 05:30:33;;;;;;;0.40;0.40;;;3.10;99.90;;;;;;5052657;28;20907;-64
2022/04/12 05:33:21;;;;;;;0.40;0.40;;;3.20;99.90;;;;;;5051926;28;20429;-64
2022/04/12 05:36:09;;;;;;;0.50;0.50;;;3.30;99.90;;;;;;5051522;28;20432;-64
2022/04/12 05:38:58;;;;;;;0.40;0.40;;;3.40;99.90;;;;;;5053121;28;20460;-64
2022/04/12 05:41:46;;;;;;;0.40;0.40;;;3.40;99.90;;;;;;5052091;28;20933;-64
2022/04/12 05:44:34;;;;;;;0.40;0.40;;;3.40;99.90;;;;;;5051650;28;20425;-64
2022/04/12 05:47:23;;;;;;;0.40;0.40;;;3.40;99.90;;;;;;5051513;28;20432;-64
2022/04/12 05:50:12;;;;;;;0.40;0.40;;;3.50;99.90;;;;;;5052459;28;20495;-64
2022/04/12 05:53:00;;;;;;;0.50;0.50;;;3.60;99.90;;;;;;5051356;28;20420;-64
2022/04/12 05:55:50;;;;;;;0.40;0.40;;;3.60;99.90;;;;;;5052544;28;20433;-64
2022/04/12 05:58:40;;;;;;;0.40;0.40;;;4.10;99.90;;;;;;5052707;28;20601;-64
2022/04/12 06:01:30;;;;;;;0.40;0.40;;;3.80;99.90;;;;;;5047474;28;20448;-64
2022/04/12 06:04:18;;;;;;;0.40;0.40;;;3.90;99.90;;;;;;5055020;28;20527;-64
2022/04/12 06:07:06;;;;;;;0.40;0.40;;;4.00;99.90;;;;;;5055753;28;20462;-64
2022/04/12 06:09:55;;;;;;;0.50;0.50;;;4.00;99.90;;;;;;5054206;28;20424;-64
2022/04/12 06:12:44;;;;;;;0.40;0.40;;;4.10;99.90;;;;;;5056230;28;20486;-64
2022/04/12 06:15:32;;;;;;;0.40;0.40;;;4.20;99.90;;;;;;5056032;28;20435;-65
2022/04/12 06:18:26;;;;;;;0.40;0.40;;;4.30;99.90;;;;;;5048482;28;20490;-65
2022/04/12 06:21:15;;;;;;;0.40;0.40;;;;;;;;;;5042088;28;20433;-65
2022/04/12 06:24:04;;;;;;;0.40;0.40;;;4.60;99.90;;;;;;5036040;28;20563;-65
2022/04/12 06:26:53;;;;;;;0.40;0.40;;;4.70;99.90;;;;;;5035200;28;20422;-65
2022/04/12 06:29:42;;;;;;;0.40;0.40;;;4.90;99.90;;;;;;5037046;28;20444;-65
2022/04/12 06:32:30;;;;;;;0.40;0.40;;;5.10;99.90;;;;;;5043391;28;20483;-65
2022/04/12 06:35:18;;;;;;;0.40;0.40;;;5.30;99.90;;;;;;5040481;28;20445;-64
2022/04/12 06:38:06;;;;;;;0.40;0.40;;;5.40;99.90;;;;;;5035552;28;20535;-65
2022/04/12 06:40:54;;;;;;;0.40;0.40;;;5.50;99.90;;;;;;5046829;28;20439;-65
2022/04/12 06:43:42;;;;;;;0.40;0.40;;;5.70;99.90;;;;;;5053474;28;20424;-65
2022/04/12 06:46:32;;;;;;;0.50;0.50;;;5.80;99.90;;;;;;5054140;28;20527;-65
2022/04/12 06:49:20;;;;;;;0.40;0.40;;;5.90;99.90;;;;;;5053494;28;20466;-65
2022/04/12 06:52:08;;;;;;;0.40;0.40;;;6.00;99.90;;;;;;5054447;28;20475;-64
2022/04/12 06:54:56;;;;;;;0.40;0.40;;;6.10;99.90;;;;;;5052964;28;20432;-64
2022/04/12 06:57:45;;;;;;;0.40;0.40;;;6.20;99.90;;;;;;5042792;28;20977;-64
2022/04/12 07:00:33;;;;;;;0.60;0.60;;;6.40;99.90;;;;;;5033951;28;20418;-64
2022/04/12 07:03:23;;;;;;;0.40;0.40;;;6.50;99.90;;;;;;5033618;28;20425;-64
2022/04/12 07:06:11;;;;;;;0.50;0.50;;;6.60;99.90;;;;;;5034953;28;20425;-64
2022/04/12 07:08:59;;;;;;;0.40;0.40;;;6.70;99.90;;;;;;5034363;28;20965;-64
2022/04/12 07:11:48;;;;;;;0.50;0.50;;;6.80;99.90;;;;;;5033875;28;20424;-64
2022/04/12 07:14:37;;;;;;;0.40;0.40;;;7.00;99.90;;;;;;5035986;28;20433;-64
2022/04/12 07:17:25;;;;;;;0.80;0.80;;;7.10;99.90;;;;;;5034971;28;20480;-65
2022/04/12 07:20:14;;;;;;;0.40;0.40;;;7.30;99.90;;;;;;5035627;28;20440;-64
2022/04/12 07:23:03;;;;;;;0.40;0.40;;;7.40;99.90;;;;;;5035181;28;20421;-65
2022/04/12 07:25:51;;;;;;;0.40;0.40;;;7.50;99.90;;;;;;5033739;28;20479;-65
2022/04/12 07:28:39;;;;;;;0.40;0.40;;;7.70;99.90;;;;;;5033705;28;20995;-65
2022/04/12 07:31:27;;;;;;;0.40;0.40;;;7.80;99.90;;;;;;5036397;28;20425;-64
2022/04/12 07:34:15;;;;;;;0.40;0.40;;;8.00;99.90;;;;;;5036621;28;20429;-64
2022/04/12 07:37:05;;;;;;;0.40;0.40;;;8.20;99.90;;;;;;5034781;28;20445;-64
2022/04/12 07:39:55;;;;;;;0.40;0.40;;;8.30;99.90;;;;;;5034650;28;20504;-65
2022/04/12 07:42:43;;;;;;;0.40;0.40;;;8.50;99.90;;;;;;5034661;28;20479;-65
2022/04/12 07:45:31;;;;;;;0.40;0.40;;;8.70;99.90;;;;;;5035280;28;20425;-65
2022/04/12 07:48:20;;;;;;;0.40;0.40;;;8.50;99.90;;;;;;5037265;28;20457;-66
2022/04/12 07:51:08;;;;;;;0.40;0.40;;;9.00;99.90;;;;;;5036603;28;20440;-66
2022/04/12 07:53:58;;;;;;;0.40;0.40;;;9.20;99.90;;;;;;5037251;28;20429;-65
2022/04/12 07:56:46;;;;;;;0.57;0.57;;;9.40;99.90;;;;;;5042061;28;20432;-65
2022/04/12 07:59:34;;;;;;;0.40;0.40;;;9.50;99.90;;;;;;5055041;28;20456;-65
2022/04/12 08:02:22;;;;;;;0.40;0.40;;;9.80;99.90;;;;;;5053647;28;20420;-69
2022/04/12 08:05:10;;;;;;;0.60;0.60;;;10.00;99.90;;;;;;5052870;28;20448;-66
2022/04/12 08:08:08;;;;;;;0.50;0.50;;;10.20;99.90;;;;;;5067540;28;20475;-66
2022/04/12 08:10:57;;;;;;;0.40;0.40;;;10.40;99.90;;;;;;5072747;28;20535;-66
2022/04/12 08:13:51;;;;;;;0.40;0.40;;;10.70;99.90;;;;;;5074200;28;20436;-67
2022/04/12 08:16:39;;;;;;;0.40;0.40;;;10.90;99.90;;;;;;5073748;28;20444;-66
2022/04/12 08:19:27;;;;;;;0.93;0.93;;;11.20;99.90;;;;;;5073056;28;20447;-65
2022/04/12 08:22:15;;;;;;;0.40;0.40;;;11.40;99.90;;;;;;5074132;28;20448;-65
2022/04/12 08:25:24;;;;;;;0.40;0.40;;;11.60;99.90;;;;;;5068443;28;20489;-66
2022/04/12 08:28:13;;;;;;;0.60;0.60;;;11.90;99.90;;;;;;5054104;28;20519;-66
2022/04/12 08:31:01;;;;;;;1.33;1.33;;;12.20;99.90;;;;;;5054050;28;20509;-65
2022/04/12 08:33:50;;;;;;;0.40;0.40;;;12.50;99.90;;;;;;5052840;28;20427;-65
2022/04/12 08:36:38;;;;;;;0.40;0.40;;;12.60;99.90;;;;;;5055171;28;20831;-65
2022/04/12 08:39:26;;;;;;;0.40;0.40;;;12.70;99.60;;;;;;5072036;28;20490;-67
2022/04/12 08:42:14;;;;;;;0.40;0.40;;;12.80;99.00;;;;;;5055083;28;20424;-66
2022/04/12 08:45:08;;;;;;;0.60;0.60;;;12.80;97.80;;;;;;5053324;28;20429;-65
2022/04/12 08:47:59;;;;;;;0.40;0.40;;;12.90;97.60;;;;;;5052275;28;20472;-66
2022/04/12 08:50:48;;;;;;;0.40;0.40;;;12.90;96.40;;;;;;5053128;28;20428;-66
2022/04/12 08:53:37;;;;;;;0.40;0.40;;;13.00;95.50;;;;;;5049318;28;20431;-66
2022/04/12 08:56:27;;;;;;;4.50;1.30;;;12.90;94.50;;;;;;5051764;28;20432;-66
2022/04/12 08:59:16;;;;;;;0.40;0.40;;;12.90;93.80;;;;;;5033848;28;20460;-65
2022/04/12 09:02:08;;;;;;;0.40;0.40;;;13.00;93.50;;;;;;5032166;28;20503;-65
2022/04/12 09:04:56;;;;;;;0.40;0.40;;;13.10;93.10;;;;;;5044939;28;20483;-66
2022/04/12 09:07:46;;;;;;;1.37;1.33;;;13.20;92.90;;;;;;5054246;28;20447;-66
2022/04/12 09:10:35;;;;;;;1.47;1.37;;;13.20;92.00;;;;;;5055122;28;20492;-66
2022/04/12 09:13:24;;;;;;;1.53;1.43;;;13.20;92.00;;;;;;5053171;28;20428;-65
2022/04/12 09:16:13;;;;;;;0.40;0.40;;;13.20;91.50;;;;;;5053412;28;20432;-65
2022/04/12 09:19:07;;;;;;;0.40;0.40;;;13.30;91.20;;;;;;5048683;28;21000;-66
2022/04/12 09:21:55;;;;;;;0.40;0.40;;;13.40;91.30;;;;;;5052402;28;20428;-66
2022/04/12 09:24:46;;;;;;;0.40;0.40;;;13.50;91.50;;;;;;5054424;28;20831;-66
2022/04/12 09:27:35;;;;;;;0.40;0.40;;;13.70;91.00;;;;;;5054823;28;20447;-66
2022/04/12 09:30:31;;;;;;;0.40;0.40;;;13.40;90.60;;;;;;5058791;28;20447;-66
2022/04/12 09:33:35;;;;;;;0.40;0.40;;;14.00;88.10;;;;;;5054801;28;20432;-65
2022/04/12 09:36:24;;;;;;;17.37;1.67;;;14.10;87.20;;;;;;5052837;28;20416;-66
2022/04/12 09:39:18;;;;;;;0.50;0.50;;;14.10;86.80;;;;;;5055979;28;20468;-66
2022/04/12 09:42:07;;;;;;;0.40;0.40;;;14.20;87.10;;;;;;5054959;28;20913;-65
2022/04/12 09:45:03;;;;;;;0.40;0.40;;;14.30;86.20;;;;;;5057839;28;20424;-65
2022/04/12 09:47:53;;;;;;;1.57;1.47;;;14.50;85.50;;;;;;5057059;28;20983;-65
2022/04/12 09:51:02;;;;;;;0.40;0.40;;;14.60;85.50;;;;;;5054923;28;20511;-66
2022/04/12 09:53:51;;;;;;;0.53;0.53;;;14.80;85.60;;;;;;5055607;28;20882;-66
2022/04/12 09:56:40;;;;;;;0.40;0.40;;;14.90;84.60;;;;;;5055946;28;20462;-66
2022/04/12 09:59:34;;;;;;;0.40;0.40;;;14.90;83.00;;;;;;5057159;28;20479;-66
2022/04/12 10:02:24;;;;;;;0.40;0.40;;;15.00;83.80;;;;;;5054746;28;20490;-65
2022/04/12 10:05:13;;;;;;;0.73;0.73;;;15.10;82.50;;;;;;5055878;28;20423;-67
2022/04/12 10:08:02;;;;;;;0.87;0.87;;;15.10;83.00;;;;;;5056245;28;20514;-64
2022/04/12 10:10:52;;;;;;;0.40;0.40;;;15.20;82.20;;;;;;5041629;28;20479;-65
2022/04/12 10:13:41;;;;;;;0.40;0.40;;;15.40;83.70;;;;;;5035376;28;20209;-64
2022/04/12 10:16:29;;;;;;;0.40;0.40;;;15.50;82.00;;;;;;5036750;28;20429;-65
2022/04/12 10:19:18;;;;;;;0.40;0.40;;;15.50;81.00;;;;;;5035772;28;20468;-65
2022/04/12 10:22:06;;;;;;;0.57;0.57;;;15.60;81.80;;;;;;5035800;28;20957;-65
2022/04/12 10:24:56;;;;;;;0.53;0.53;;;15.70;79.50;;;;;;5035907;28;20425;-65
2022/04/12 10:27:47;;;;;;;0.50;0.50;;;15.70;80.30;;;;;;5035471;28;20452;-65
2022/04/12 10:30:35;;;;;;;0.40;0.40;;;15.80;80.00;;;;;;5035930;28;20472;-65
2022/04/12 10:33:27;;;;;;;0.40;0.40;;;15.90;78.40;;;;;;5034705;28;20198;-64
2022/04/12 10:36:15;;;;;;;0.40;0.40;;;15.90;78.40;;;;;;5036209;28;20937;-65
2022/04/12 10:39:12;;;;;;;0.40;0.40;;;16.00;78.30;;;;;;5035364;28;20234;-65
2022/04/12 10:42:04;;;;;;;0.40;0.40;;;16.00;78.10;;;;;;5040744;28;20206;-65
2022/04/12 10:44:56;;;;;;;0.40;0.40;;;16.10;79.60;;;;;;5053433;28;20261;-64
2022/04/12 10:47:45;;;;;;;0.40;0.40;;;16.10;78.50;;;;;;5035194;28;20972;-65
2022/04/12 10:50:41;;;;;;;0.40;0.40;;;16.20;79.30;;;;;;5036051;28;20208;-65
2022/04/12 10:53:55;;;;;;;0.50;0.50;;;16.20;78.00;;;;;;5037716;28;20217;-66
2022/04/12 10:56:43;;;;;;;0.40;0.40;;;16.40;78.40;;;;;;5040443;28;20967;-66
2022/04/12 10:59:46;;;;;;;0.40;0.40;;;16.50;78.40;;;;;;5055442;28;20872;-66
2022/04/12 11:02:42;;;;;;;0.40;0.40;;;16.50;77.90;;;;;;5055029;28;20208;-67
2022/04/12 11:06:00;;;;;;;0.40;0.40;;;16.60;77.50;;;;;;5048938;28;20502;-66
2022/04/12 11:08:50;;;;;;;0.40;0.40;;;16.60;77.30;;;;;;5049133;28;20217;-65
2022/04/12 11:11:40;;;;;;;0.40;0.40;;;16.60;76.80;;;;;;5042132;28;20209;-65
2022/04/12 11:14:32;;;;;;;0.40;0.40;;;16.70;77.40;;;;;;5037173;28;20288;-65
2022/04/12 11:17:28;;;;;;;0.40;0.40;;;16.80;76.20;;;;;;5050684;28;20264;-66
2022/04/12 11:20:24;;;;;;;0.50;0.50;;;17.00;75.50;;;;;;5042963;28;20213;-65
2022/04/12 11:23:14;;;;;;;0.40;0.40;;;17.10;76.20;;;;;;5041999;28;20217;-65
2022/04/12 11:26:28;;;;;;;0.40;0.40;;;17.10;75.50;;;;;;5044358;28;20205;-65
2022/04/12 11:29:18;;;;;;;0.40;0.40;;;17.20;75.00;;;;;;5048608;28;20628;-65
2022/04/12 11:32:07;;;;;;;0.40;0.40;;;17.10;75.30;;;;;;5045345;28;20217;-65
2022/04/12 11:34:57;;;;;;;0.60;0.60;;;17.20;76.20;;;;;;5030604;28;173716;-66
2022/04/12 11:37:47;;;;;;;0.40;0.40;;;17.30;73.20;;;;;;5056240;28;20225;-65
2022/04/12 11:40:35;;;;;;;0.70;0.70;;;17.30;74.70;;;;;;5056785;28;20249;-65
2022/04/12 11:43:26;;;;;;;0.40;0.40;;;17.40;72.40;;;;;;5052096;28;20208;-65
2022/04/12 11:46:17;;;;;;;0.60;0.60;;;17.40;71.50;;;;;;5057206;28;20219;-65
2022/04/12 11:49:07;;;;;;;0.40;0.40;;;17.40;71.20;;;;;;5054121;28;20697;-65
2022/04/12 11:52:01;;;;;;;0.40;0.40;;;17.50;70.50;;;;;;5054137;28;20194;-66
2022/04/12 11:54:50;;;;;;;0.40;0.40;;;17.60;69.00;;;;;;5050463;28;20794;-65
2022/04/12 11:57:38;;;;;;;0.40;0.40;;;17.60;68.90;;;;;;5056738;28;20221;-65
2022/04/12 12:00:29;;;;;;;0.40;0.40;;;17.60;69.30;;;;;;5048763;28;20767;-65
2022/04/12 12:03:18;;;;;;;0.40;0.40;;;17.70;69.90;;;;;;5071771;28;20220;-65
2022/04/12 12:06:08;;;;;;;0.40;0.40;;;17.60;67.70;;;;;;5075699;28;20212;-65
2022/04/12 12:08:56;;;;;;;0.50;0.50;;;17.60;68.50;;;;;;5074679;28;20271;-65
2022/04/12 12:11:45;;;;;;;0.40;0.40;;;17.50;68.10;;;;;;5073864;28;20236;-66
2022/04/12 12:14:34;;;;;;;0.40;0.40;;;17.40;68.70;;;;;;5073149;28;20204;-65
2022/04/12 12:17:28;;;;;;;0.50;0.50;;;17.20;67.70;;;;;;5074188;28;20208;-65
2022/04/12 12:20:17;;;;;;;0.40;0.40;;;17.10;67.00;;;;;;5074453;28;20229;-65
2022/04/12 12:23:07;;;;;;;0.40;0.40;;;17.00;69.00;;;;;;5072364;28;20201;-66
2022/04/12 12:25:56;;;;;;;0.50;0.50;;;16.90;71.20;;;;;;5074606;28;20201;-65
2022/04/12 12:28:45;;;;;;;0.40;0.40;;;16.70;70.40;;;;;;5074579;28;20635;-66
2022/04/12 12:31:42;;;;;;;0.40;0.40;;;16.60;68.60;;;;;;5085239;28;20563;-66
2022/04/12 12:34:34;;;;;;;1.13;1.13;;;16.50;67.90;;;;;;5089881;28;20200;-67
2022/04/12 12:37:23;;;;;;;0.40;0.40;;;16.40;72.30;;;;;;5077233;28;20217;-66
2022/04/12 12:40:22;;;;;;;0.60;0.60;;;16.40;68.80;;;;;;5073122;28;20239;-66
2022/04/12 12:43:11;;;;;;;0.40;0.40;;;16.30;68.80;;;;;;5079334;28;20203;-66
2022/04/12 12:46:06;;;;;;;1.27;1.27;;;16.30;67.60;;;;;;5052922;28;20194;-66
2022/04/12 12:49:12;;;;;;;0.40;0.40;;;16.30;67.60;;;;;;5071329;28;20229;-66
2022/04/12 12:52:04;;;;;;;0.40;0.40;;;16.60;68.00;;;;;;5055681;28;20425;-66
2022/04/12 12:54:56;;;;;;;0.50;0.50;;;17.30;69.70;;;;;;5052913;28;20205;-66
2022/04/12 12:57:46;;;;;;;0.75;0.75;;;18.30;67.70;;;;;;5066778;28;20697;-67
2022/04/12 13:00:35;;;;;;;1.13;1.13;;;19.40;66.60;;;;;;5064593;28;20221;-67
2022/04/12 13:03:24;;;;;;;0.50;0.50;;;20.80;65.20;;;;;;5049868;28;20193;-67
2022/04/12 13:06:13;;;;;;;1.77;1.58;;;22.30;61.30;;;;;;5049144;28;20209;-68
2022/04/12 13:09:06;;;;;;;0.40;0.40;;;23.80;58.90;;;;;;5032696;28;20975;-65
2022/04/12 13:11:54;;;;;;;0.40;0.40;;;25.20;55.50;;;;;;5050907;28;20205;-66
2022/04/12 13:14:44;;;;;;;0.60;0.60;;;26.90;54.80;;;;;;5049621;28;20198;-66
2022/04/12 13:17:32;;;;;;;0.40;0.40;;;28.50;50.20;;;;;;5050802;28;20864;-66
2022/04/12 13:20:20;;;;;;;0.40;0.40;;;29.80;46.60;;;;;;5051084;28;20193;-66
2022/04/12 13:23:10;;;;;;;0.40;0.40;;;30.90;43.50;;;;;;5047798;28;20201;-66
2022/04/12 13:26:00;;;;;;;0.40;0.40;;;31.40;41.40;;;;;;5052376;28;20197;-66
2022/04/12 13:28:48;;;;;;;1.35;0.57;;;31.50;41.10;;;;;;5043213;28;20227;-66
2022/04/12 13:31:37;;;;;;;0.40;0.40;;;31.30;39.50;;;;;;5045717;28;20202;-66
2022/04/12 13:34:26;;;;;;;0.40;0.40;;;30.90;39.80;;;;;;5050933;28;20228;-66
2022/04/12 13:37:15;;;;;;;0.40;0.40;;;31.20;39.30;;;;;;5051712;28;20209;-66
2022/04/12 13:40:04;;;;;;;0.40;0.40;;;31.00;39.50;;;;;;5049697;28;20208;-66
2022/04/12 13:42:54;;;;;;;0.40;0.40;;;31.60;39.40;;;;;;5050143;28;20204;-66
2022/04/12 13:45:42;;;;;;;0.40;0.40;;;32.40;38.00;;;;;;5049038;28;20205;-66
2022/04/12 13:48:32;;;;;;;0.40;0.40;;;32.90;37.40;;;;;;5049589;28;20217;-66
2022/04/12 13:51:21;;;;;;;3.15;3.03;;;33.10;36.20;;;;;;5052466;28;20213;-66
2022/04/12 13:54:09;;;;;;;0.40;0.40;;;33.20;36.40;;;;;;5051419;28;20198;-66
2022/04/12 13:56:58;;;;;;;0.40;0.40;;;33.70;36.30;;;;;;5051126;28;20575;-66
2022/04/12 13:59:48;;;;;;;0.40;0.40;;;34.10;35.40;;;;;;5049879;28;20209;-66
2022/04/12 14:02:36;;;;;;;0.60;0.60;;;34.50;35.20;;;;;;5047179;28;20217;-66
2022/04/12 14:05:26;;;;;;;0.40;0.40;;;34.40;34.90;;;;;;5050643;28;20710;-66
2022/04/12 14:08:14;;;;;;;0.50;0.50;;;33.50;34.60;;;;;;5051888;28;20209;-66
2022/04/12 14:11:03;;;;;;;0.40;0.40;;;33.60;33.90;;;;;;5051571;28;20198;-66
2022/04/12 14:13:51;;;;;;;0.40;0.40;;;34.10;33.90;;;;;;5047553;28;20331;-66
2022/04/12 14:16:41;;;;;;;0.40;0.40;;;34.80;33.80;;;;;;5048063;28;20190;-67
2022/04/12 14:19:29;;;;;;;0.40;0.40;;;34.70;33.00;;;;;;5041591;28;20250;-67
2022/04/12 14:22:18;;;;;;;0.40;0.40;;;34.60;33.50;;;;;;5048794;28;20229;-67
2022/04/12 14:25:07;;;;;;;6.22;0.77;;;34.40;32.40;;;;;;5053079;28;20208;-67
2022/04/12 14:27:55;;;;;;;0.40;0.40;;;34.10;32.40;;;;;;5054338;28;20630;-66
2022/04/12 14:30:43;;;;;;;0.80;0.47;;;33.00;33.60;;;;;;5052877;28;20251;-66
2022/04/12 14:33:33;;;;;;;0.40;0.40;;;31.80;33.80;;;;;;5055269;28;20663;-66
2022/04/12 14:36:21;;;;;;;3.28;3.08;;;30.60;34.10;;;;;;5054050;28;20204;-66
2022/04/12 14:39:09;;;;;;;0.40;0.40;;;29.50;34.70;;;;;;5054610;28;20298;-67
2022/04/12 14:41:58;;;;;;;0.40;0.40;;;28.80;36.10;;;;;;5055782;28;20221;-66
2022/04/12 14:44:46;;;;;;;0.60;0.60;;;27.80;36.40;;;;;;5055796;28;20216;-66
2022/04/12 14:47:34;;;;;;;0.50;0.50;;;27.40;37.40;;;;;;5055489;28;20690;-66
2022/04/12 14:50:23;;;;;;;0.40;0.40;;;26.80;38.00;;;;;;5062396;28;20208;-67
2022/04/12 14:53:14;;;;;;;0.40;0.40;;;26.80;37.20;;;;;;5055014;23;20745;-69